sensor_id;sensor_type;location;lat;lon;timestamp;pressure;altitude;pressure_sealevel;temperature;humidity
64551;BME280;50945;44.472;-123.352;2022-08-21T00:00:09;100149.59;;;27.62;47.93
64551;BME280;50945;44.472;-123.352;2022-08-21T00:02:36;100144.06;;;27.57;48.19
64551;BME280;50945;44.472;-123.352;2022-08-21T00:05:04;100141.47;;;27.60;48.07
64551;BME280;50945;44.472;-123.352;2022-08-21T00:07:30;100142.31;;;27.61;48.23
64551;BME280;50945;44.472;-123.352;2022-08-21T00:09:58;100140.19;;;27.53;48.38
64551;BME280;50945;44.472;-123.352;2022-08-21T00:12:25;100132.06;;;27.51;48.33
64551;BME280;50945;44.472;-123.352;2022-08-21T00:14:54;100138.59;;;27.46;48.51
64551;BME280;50945;44.472;-123.352;2022-08-21T00:17:21;100130.78;;;27.43;48.46
64551;BME280;50945;44.472;-123.352;2022-08-21T00:19:48;100133.66;;;27.38;48.65
64551;BME280;50945;44.472;-123.352;2022-08-21T00:22:15;100130.13;;;27.33;48.58
64551;BME280;50945;44.472;-123.352;2022-08-21T00:24:41;100141.09;;;27.29;48.77
64551;BME280;50945;44.472;-123.352;2022-08-21T00:27:07;100138.41;;;27.19;48.75
64551;BME280;50945;44.472;-123.352;2022-08-21T00:29:34;100129.81;;;27.10;49.03
64551;BME280;50945;44.472;-123.352;2022-08-21T00:32:00;100129.94;;;27.00;49.17
64551;BME280;50945;44.472;-123.352;2022-08-21T00:34:27;100128.13;;;26.90;49.51
64551;BME280;50945;44.472;-123.352;2022-08-21T00:36:53;100133.97;;;26.69;49.85
64551;BME280;50945;44.472;-123.352;2022-08-21T00:39:20;100136.59;;;26.55;50.03
64551;BME280;50945;44.472;-123.352;2022-08-21T00:41:46;100131.19;;;26.40;50.36
64551;BME280;50945;44.472;-123.352;2022-08-21T00:44:15;100124.56;;;26.26;50.85
64551;BME280;50945;44.472;-123.352;2022-08-21T00:46:42;100130.06;;;26.12;51.08
64551;BME280;50945;44.472;-123.352;2022-08-21T00:49:11;100123.09;;;26.04;51.60
64551;BME280;50945;44.472;-123.352;2022-08-21T00:51:49;100126.56;;;25.91;51.41
64551;BME280;50945;44.472;-123.352;2022-08-21T00:54:17;100128.59;;;25.80;51.70
64551;BME280;50945;44.472;-123.352;2022-08-21T00:56:46;100130.94;;;25.68;51.92
64551;BME280;50945;44.472;-123.352;2022-08-21T00:59:16;100128.19;;;25.63;52.22
64551;BME280;50945;44.472;-123.352;2022-08-21T01:01:43;100130.44;;;25.60;52.55
64551;BME280;50945;44.472;-123.352;2022-08-21T01:04:10;100130.19;;;25.57;52.43
64551;BME280;50945;44.472;-123.352;2022-08-21T01:06:37;100133.25;;;25.55;52.57
64551;BME280;50945;44.472;-123.352;2022-08-21T01:09:03;100133.56;;;25.49;52.44
64551;BME280;50945;44.472;-123.352;2022-08-21T01:11:31;100139.50;;;25.42;52.58
64551;BME280;50945;44.472;-123.352;2022-08-21T01:13:57;100133.63;;;25.38;52.91
64551;BME280;50945;44.472;-123.352;2022-08-21T01:16:24;100139.56;;;25.32;53.01
64551;BME280;50945;44.472;-123.352;2022-08-21T01:18:51;100136.81;;;25.27;53.44
64551;BME280;50945;44.472;-123.352;2022-08-21T01:21:21;100132.84;;;25.22;53.39
64551;BME280;50945;44.472;-123.352;2022-08-21T01:23:51;100132.59;;;25.19;53.55
64551;BME280;50945;44.472;-123.352;2022-08-21T01:26:23;100126.75;;;25.15;53.56
64551;BME280;50945;44.472;-123.352;2022-08-21T01:28:57;100125.66;;;25.11;53.66
64551;BME280;50945;44.472;-123.352;2022-08-21T01:31:27;100125.97;;;25.04;54.02
64551;BME280;50945;44.472;-123.352;2022-08-21T01:33:54;100111.75;;;24.96;53.85
64551;BME280;50945;44.472;-123.352;2022-08-21T01:36:21;100115.16;;;24.88;54.05
64551;BME280;50945;44.472;-123.352;2022-08-21T01:38:49;100117.72;;;24.74;54.26
64551;BME280;50945;44.472;-123.352;2022-08-21T01:41:15;100115.50;;;24.65;54.49
64551;BME280;50945;44.472;-123.352;2022-08-21T01:43:42;100120.00;;;24.56;54.60
64551;BME280;50945;44.472;-123.352;2022-08-21T01:46:10;100114.66;;;24.49;54.89
64551;BME280;50945;44.472;-123.352;2022-08-21T01:48:37;100124.75;;;24.40;54.90
64551;BME280;50945;44.472;-123.352;2022-08-21T01:51:06;100117.25;;;24.36;55.19
64551;BME280;50945;44.472;-123.352;2022-08-21T01:53:33;100115.84;;;24.33;55.13
64551;BME280;50945;44.472;-123.352;2022-08-21T01:56:08;100130.06;;;24.26;55.33
64551;BME280;50945;44.472;-123.352;2022-08-21T01:58:35;100125.34;;;24.22;55.58
64551;BME280;50945;44.472;-123.352;2022-08-21T02:01:03;100131.78;;;24.12;55.70
64551;BME280;50945;44.472;-123.352;2022-08-21T02:03:30;100129.53;;;24.09;55.81
64551;BME280;50945;44.472;-123.352;2022-08-21T02:05:57;100125.91;;;24.03;55.97
64551;BME280;50945;44.472;-123.352;2022-08-21T02:08:23;100129.28;;;24.00;56.06
64551;BME280;50945;44.472;-123.352;2022-08-21T02:10:51;100133.72;;;23.91;56.13
64551;BME280;50945;44.472;-123.352;2022-08-21T02:13:18;100136.81;;;23.84;56.34
64551;BME280;50945;44.472;-123.352;2022-08-21T02:15:45;100130.34;;;23.79;56.55
64551;BME280;50945;44.472;-123.352;2022-08-21T02:18:12;100138.75;;;23.73;56.55
64551;BME280;50945;44.472;-123.352;2022-08-21T02:20:45;100143.44;;;23.68;56.83
64551;BME280;50945;44.472;-123.352;2022-08-21T02:23:13;100142.88;;;23.61;56.63
64551;BME280;50945;44.472;-123.352;2022-08-21T02:25:39;100140.09;;;23.50;56.81
64551;BME280;50945;44.472;-123.352;2022-08-21T02:28:10;100131.72;;;23.40;57.17
64551;BME280;50945;44.472;-123.352;2022-08-21T02:30:40;100145.63;;;23.30;57.47
64551;BME280;50945;44.472;-123.352;2022-08-21T02:33:07;100136.09;;;23.15;57.48
64551;BME280;50945;44.472;-123.352;2022-08-21T02:35:36;100147.78;;;23.07;57.74
64551;BME280;50945;44.472;-123.352;2022-08-21T02:38:06;100152.72;;;23.00;57.93
64551;BME280;50945;44.472;-123.352;2022-08-21T02:40:35;100151.59;;;22.91;57.87
64551;BME280;50945;44.472;-123.352;2022-08-21T02:43:04;100153.22;;;22.82;58.10
64551;BME280;50945;44.472;-123.352;2022-08-21T02:45:31;100162.06;;;22.73;58.30
64551;BME280;50945;44.472;-123.352;2022-08-21T02:48:02;100159.78;;;22.60;58.64
64551;BME280;50945;44.472;-123.352;2022-08-21T02:50:33;100162.19;;;22.46;58.75
64551;BME280;50945;44.472;-123.352;2022-08-21T02:53:00;100169.09;;;22.33;59.04
64551;BME280;50945;44.472;-123.352;2022-08-21T02:55:29;100158.06;;;22.16;59.38
64551;BME280;50945;44.472;-123.352;2022-08-21T02:57:56;100163.78;;;21.99;59.57
64551;BME280;50945;44.472;-123.352;2022-08-21T03:00:25;100160.84;;;21.84;60.05
64551;BME280;50945;44.472;-123.352;2022-08-21T03:02:53;100165.19;;;21.70;60.22
64551;BME280;50945;44.472;-123.352;2022-08-21T03:05:22;100163.97;;;21.60;60.31
64551;BME280;50945;44.472;-123.352;2022-08-21T03:07:49;100168.00;;;21.48;60.40
64551;BME280;50945;44.472;-123.352;2022-08-21T03:10:16;100168.44;;;21.39;60.69
64551;BME280;50945;44.472;-123.352;2022-08-21T03:12:42;100163.84;;;21.28;60.66
64551;BME280;50945;44.472;-123.352;2022-08-21T03:15:11;100168.47;;;21.17;60.93
64551;BME280;50945;44.472;-123.352;2022-08-21T03:17:38;100171.72;;;21.09;61.29
64551;BME280;50945;44.472;-123.352;2022-08-21T03:20:04;100176.56;;;20.97;63.91
64551;BME280;50945;44.472;-123.352;2022-08-21T03:22:31;100175.59;;;20.86;61.45
64551;BME280;50945;44.472;-123.352;2022-08-21T03:24:59;100173.25;;;20.78;61.55
64551;BME280;50945;44.472;-123.352;2022-08-21T03:27:27;100182.00;;;20.69;61.75
64551;BME280;50945;44.472;-123.352;2022-08-21T03:29:54;100187.06;;;20.56;62.01
64551;BME280;50945;44.472;-123.352;2022-08-21T03:32:21;100191.97;;;20.48;62.23
64551;BME280;50945;44.472;-123.352;2022-08-21T03:34:48;100195.66;;;20.37;62.61
64551;BME280;50945;44.472;-123.352;2022-08-21T03:37:15;100191.38;;;20.29;62.79
64551;BME280;50945;44.472;-123.352;2022-08-21T03:39:44;100195.44;;;20.22;62.91
64551;BME280;50945;44.472;-123.352;2022-08-21T03:42:11;100203.91;;;20.15;62.87
64551;BME280;50945;44.472;-123.352;2022-08-21T03:44:38;100202.13;;;20.09;63.07
64551;BME280;50945;44.472;-123.352;2022-08-21T03:47:05;100206.75;;;20.03;63.27
64551;BME280;50945;44.472;-123.352;2022-08-21T03:49:32;100208.63;;;19.98;63.14
64551;BME280;50945;44.472;-123.352;2022-08-21T03:52:00;100214.56;;;19.89;63.50
64551;BME280;50945;44.472;-123.352;2022-08-21T03:54:26;100219.75;;;19.86;63.46
64551;BME280;50945;44.472;-123.352;2022-08-21T03:56:53;100216.31;;;19.79;63.63
64551;BME280;50945;44.472;-123.352;2022-08-21T03:59:20;100218.38;;;19.71;63.83
64551;BME280;50945;44.472;-123.352;2022-08-21T04:01:58;100227.69;;;19.65;65.52
64551;BME280;50945;44.472;-123.352;2022-08-21T04:04:27;100218.94;;;19.56;64.34
64551;BME280;50945;44.472;-123.352;2022-08-21T04:06:54;100220.13;;;19.49;64.43
64551;BME280;50945;44.472;-123.352;2022-08-21T04:09:21;100224.50;;;19.45;64.45
64551;BME280;50945;44.472;-123.352;2022-08-21T04:11:48;100222.50;;;19.40;64.36
64551;BME280;50945;44.472;-123.352;2022-08-21T04:14:16;100230.69;;;19.35;64.66
64551;BME280;50945;44.472;-123.352;2022-08-21T04:16:43;100228.06;;;19.28;64.83
64551;BME280;50945;44.472;-123.352;2022-08-21T04:19:10;100233.25;;;19.25;64.95
64551;BME280;50945;44.472;-123.352;2022-08-21T04:21:37;100240.38;;;19.21;64.69
64551;BME280;50945;44.472;-123.352;2022-08-21T04:24:05;100241.94;;;19.16;64.92
64551;BME280;50945;44.472;-123.352;2022-08-21T04:26:34;100239.91;;;19.12;65.12
64551;BME280;50945;44.472;-123.352;2022-08-21T04:29:01;100235.34;;;19.06;65.29
64551;BME280;50945;44.472;-123.352;2022-08-21T04:31:27;100238.75;;;18.96;65.59
64551;BME280;50945;44.472;-123.352;2022-08-21T04:33:54;100242.00;;;18.93;65.65
64551;BME280;50945;44.472;-123.352;2022-08-21T04:36:22;100233.31;;;18.89;65.50
64551;BME280;50945;44.472;-123.352;2022-08-21T04:38:48;100243.91;;;18.80;68.68
64551;BME280;50945;44.472;-123.352;2022-08-21T04:41:14;100243.53;;;18.77;65.75
64551;BME280;50945;44.472;-123.352;2022-08-21T04:43:41;100244.50;;;18.71;65.86
64551;BME280;50945;44.472;-123.352;2022-08-21T04:46:08;100245.22;;;18.66;66.04
64551;BME280;50945;44.472;-123.352;2022-08-21T04:48:35;100253.66;;;18.59;66.33
64551;BME280;50945;44.472;-123.352;2022-08-21T04:51:11;100249.91;;;18.54;66.90
64551;BME280;50945;44.472;-123.352;2022-08-21T04:53:47;100250.38;;;18.51;67.07
64551;BME280;50945;44.472;-123.352;2022-08-21T04:56:41;100256.44;;;18.48;68.65
64551;BME280;50945;44.472;-123.352;2022-08-21T04:59:11;100262.91;;;18.41;66.75
64551;BME280;50945;44.472;-123.352;2022-08-21T05:01:40;100260.84;;;18.37;66.81
64551;BME280;50945;44.472;-123.352;2022-08-21T05:04:08;100256.03;;;18.32;66.91
64551;BME280;50945;44.472;-123.352;2022-08-21T05:06:36;100253.97;;;18.28;67.19
64551;BME280;50945;44.472;-123.352;2022-08-21T05:09:05;100263.84;;;18.23;67.11
64551;BME280;50945;44.472;-123.352;2022-08-21T05:11:32;100262.63;;;18.19;67.37
64551;BME280;50945;44.472;-123.352;2022-08-21T05:13:59;100262.28;;;18.16;67.31
64551;BME280;50945;44.472;-123.352;2022-08-21T05:16:26;100262.50;;;18.14;67.55
64551;BME280;50945;44.472;-123.352;2022-08-21T05:18:52;100267.66;;;18.11;67.31
64551;BME280;50945;44.472;-123.352;2022-08-21T05:21:19;100267.06;;;18.09;67.50
64551;BME280;50945;44.472;-123.352;2022-08-21T05:23:46;100272.22;;;18.05;67.95
64551;BME280;50945;44.472;-123.352;2022-08-21T05:26:13;100268.22;;;18.01;67.83
64551;BME280;50945;44.472;-123.352;2022-08-21T05:28:39;100269.41;;;17.93;69.72
64551;BME280;50945;44.472;-123.352;2022-08-21T05:31:05;100271.34;;;17.93;67.70
64551;BME280;50945;44.472;-123.352;2022-08-21T05:33:31;100274.13;;;17.93;67.96
64551;BME280;50945;44.472;-123.352;2022-08-21T05:35:58;100272.03;;;17.88;68.09
64551;BME280;50945;44.472;-123.352;2022-08-21T05:38:25;100273.09;;;17.87;68.29
64551;BME280;50945;44.472;-123.352;2022-08-21T05:40:53;100265.28;;;17.84;68.28
64551;BME280;50945;44.472;-123.352;2022-08-21T05:43:20;100268.72;;;17.79;68.49
64551;BME280;50945;44.472;-123.352;2022-08-21T05:45:46;100265.59;;;17.76;68.45
64551;BME280;50945;44.472;-123.352;2022-08-21T05:48:24;100271.34;;;17.74;69.81
64551;BME280;50945;44.472;-123.352;2022-08-21T05:50:52;100274.56;;;17.71;68.43
64551;BME280;50945;44.472;-123.352;2022-08-21T05:53:20;100280.38;;;17.70;68.47
64551;BME280;50945;44.472;-123.352;2022-08-21T05:55:47;100272.75;;;17.65;68.56
64551;BME280;50945;44.472;-123.352;2022-08-21T05:58:16;100280.91;;;17.60;68.54
64551;BME280;50945;44.472;-123.352;2022-08-21T06:00:44;100280.16;;;17.53;69.06
64551;BME280;50945;44.472;-123.352;2022-08-21T06:03:16;100276.16;;;17.48;68.80
64551;BME280;50945;44.472;-123.352;2022-08-21T06:05:43;100280.22;;;17.46;69.03
64551;BME280;50945;44.472;-123.352;2022-08-21T06:08:09;100285.59;;;17.41;73.45
64551;BME280;50945;44.472;-123.352;2022-08-21T06:10:35;100277.56;;;17.39;68.80
64551;BME280;50945;44.472;-123.352;2022-08-21T06:13:02;100282.47;;;17.37;69.42
64551;BME280;50945;44.472;-123.352;2022-08-21T06:15:28;100274.88;;;17.33;69.58
64551;BME280;50945;44.472;-123.352;2022-08-21T06:17:58;100289.16;;;17.29;69.42
64551;BME280;50945;44.472;-123.352;2022-08-21T06:20:25;100298.75;;;17.27;69.57
64551;BME280;50945;44.472;-123.352;2022-08-21T06:22:51;100289.22;;;17.23;69.81
64551;BME280;50945;44.472;-123.352;2022-08-21T06:25:18;100300.50;;;17.21;69.69
64551;BME280;50945;44.472;-123.352;2022-08-21T06:27:45;100294.13;;;17.21;69.85
64551;BME280;50945;44.472;-123.352;2022-08-21T06:30:12;100297.13;;;17.19;69.88
64551;BME280;50945;44.472;-123.352;2022-08-21T06:32:38;100297.34;;;17.18;70.04
64551;BME280;50945;44.472;-123.352;2022-08-21T06:35:06;100302.88;;;17.18;70.37
64551;BME280;50945;44.472;-123.352;2022-08-21T06:37:32;100301.19;;;17.17;70.28
64551;BME280;50945;44.472;-123.352;2022-08-21T06:39:59;100294.19;;;17.14;69.93
64551;BME280;50945;44.472;-123.352;2022-08-21T06:42:25;100314.47;;;17.08;73.54
64551;BME280;50945;44.472;-123.352;2022-08-21T06:44:54;100313.63;;;17.07;70.16
64551;BME280;50945;44.472;-123.352;2022-08-21T06:47:20;100311.31;;;17.04;70.69
64551;BME280;50945;44.472;-123.352;2022-08-21T06:49:47;100311.53;;;17.03;70.47
64551;BME280;50945;44.472;-123.352;2022-08-21T06:52:13;100312.22;;;16.98;73.21
64551;BME280;50945;44.472;-123.352;2022-08-21T06:54:40;100310.53;;;16.97;70.40
64551;BME280;50945;44.472;-123.352;2022-08-21T06:57:07;100301.66;;;16.95;70.40
64551;BME280;50945;44.472;-123.352;2022-08-21T06:59:34;100307.41;;;16.94;70.15
64551;BME280;50945;44.472;-123.352;2022-08-21T07:02:02;100302.09;;;16.92;70.61
64551;BME280;50945;44.472;-123.352;2022-08-21T07:04:28;100305.69;;;16.92;70.53
64551;BME280;50945;44.472;-123.352;2022-08-21T07:06:55;100305.69;;;16.92;70.61
64551;BME280;50945;44.472;-123.352;2022-08-21T07:09:21;100313.38;;;16.90;74.19
64551;BME280;50945;44.472;-123.352;2022-08-21T07:11:51;100321.88;;;16.89;70.75
64551;BME280;50945;44.472;-123.352;2022-08-21T07:14:18;100322.97;;;16.88;70.92
64551;BME280;50945;44.472;-123.352;2022-08-21T07:16:44;100322.09;;;16.87;70.51
64551;BME280;50945;44.472;-123.352;2022-08-21T07:19:10;100333.19;;;16.81;74.40
64551;BME280;50945;44.472;-123.352;2022-08-21T07:21:36;100338.72;;;16.81;70.44
64551;BME280;50945;44.472;-123.352;2022-08-21T07:24:03;100336.63;;;16.76;70.62
64551;BME280;50945;44.472;-123.352;2022-08-21T07:26:29;100331.84;;;16.65;73.78
64551;BME280;50945;44.472;-123.352;2022-08-21T07:28:55;100333.56;;;16.59;70.63
64551;BME280;50945;44.472;-123.352;2022-08-21T07:31:24;100332.56;;;16.53;70.81
64551;BME280;50945;44.472;-123.352;2022-08-21T07:33:50;100332.16;;;16.50;70.66
64551;BME280;50945;44.472;-123.352;2022-08-21T07:36:17;100334.09;;;16.49;71.48
64551;BME280;50945;44.472;-123.352;2022-08-21T07:38:43;100330.47;;;16.49;71.26
64551;BME280;50945;44.472;-123.352;2022-08-21T07:41:16;100333.47;;;16.47;71.04
64551;BME280;50945;44.472;-123.352;2022-08-21T07:43:43;100332.84;;;16.45;70.95
64551;BME280;50945;44.472;-123.352;2022-08-21T07:46:10;100332.44;;;16.42;71.16
64551;BME280;50945;44.472;-123.352;2022-08-21T07:48:37;100345.84;;;16.38;71.00
64551;BME280;50945;44.472;-123.352;2022-08-21T07:51:08;100339.94;;;16.34;71.12
64551;BME280;50945;44.472;-123.352;2022-08-21T07:53:35;100342.03;;;16.32;71.44
64551;BME280;50945;44.472;-123.352;2022-08-21T07:56:02;100350.56;;;16.31;71.33
64551;BME280;50945;44.472;-123.352;2022-08-21T07:58:31;100345.28;;;16.29;72.01
64551;BME280;50945;44.472;-123.352;2022-08-21T08:00:57;100349.91;;;16.29;72.36
64551;BME280;50945;44.472;-123.352;2022-08-21T08:03:24;100348.25;;;16.28;71.75
64551;BME280;50945;44.472;-123.352;2022-08-21T08:05:50;100345.50;;;16.28;72.17
64551;BME280;50945;44.472;-123.352;2022-08-21T08:08:16;100348.25;;;16.28;71.84
64551;BME280;50945;44.472;-123.352;2022-08-21T08:10:44;100344.66;;;16.27;71.85
64551;BME280;50945;44.472;-123.352;2022-08-21T08:13:10;100355.50;;;16.22;72.51
64551;BME280;50945;44.472;-123.352;2022-08-21T08:15:36;100355.75;;;16.14;75.95
64551;BME280;50945;44.472;-123.352;2022-08-21T08:18:03;100354.94;;;16.07;71.94
64551;BME280;50945;44.472;-123.352;2022-08-21T08:20:29;100356.69;;;16.01;72.68
64551;BME280;50945;44.472;-123.352;2022-08-21T08:22:56;100357.75;;;16.00;72.52
64551;BME280;50945;44.472;-123.352;2022-08-21T08:25:23;100358.34;;;16.02;72.64
64551;BME280;50945;44.472;-123.352;2022-08-21T08:27:50;100360.91;;;16.04;72.84
64551;BME280;50945;44.472;-123.352;2022-08-21T08:30:18;100358.75;;;16.06;72.47
64551;BME280;50945;44.472;-123.352;2022-08-21T08:32:45;100367.03;;;16.06;72.43
64551;BME280;50945;44.472;-123.352;2022-08-21T08:35:12;100362.38;;;16.06;72.36
64551;BME280;50945;44.472;-123.352;2022-08-21T08:37:39;100369.16;;;16.04;72.90
64551;BME280;50945;44.472;-123.352;2022-08-21T08:43:06;100372.16;;;16.02;72.63
64551;BME280;50945;44.472;-123.352;2022-08-21T08:45:36;100375.97;;;16.01;72.80
64551;BME280;50945;44.472;-123.352;2022-08-21T08:48:05;100368.38;;;15.96;72.70
64551;BME280;50945;44.472;-123.352;2022-08-21T08:53:46;100367.34;;;15.91;75.12
64551;BME280;50945;44.472;-123.352;2022-08-21T08:56:14;100377.75;;;15.89;72.89
64551;BME280;50945;44.472;-123.352;2022-08-21T08:58:42;100366.94;;;15.87;72.78
64551;BME280;50945;44.472;-123.352;2022-08-21T09:01:16;100373.09;;;15.83;73.02
64551;BME280;50945;44.472;-123.352;2022-08-21T09:03:44;100368.25;;;15.78;73.15
64551;BME280;50945;44.472;-123.352;2022-08-21T09:09:37;100355.34;;;15.65;73.71
64551;BME280;50945;44.472;-123.352;2022-08-21T09:18:25;100356.88;;;15.48;74.75
64551;BME280;50945;44.472;-123.352;2022-08-21T09:20:59;100362.81;;;15.45;73.78
64551;BME280;50945;44.472;-123.352;2022-08-21T09:26:16;100365.38;;;15.39;73.49
64551;BME280;50945;44.472;-123.352;2022-08-21T09:28:43;100371.72;;;15.40;73.50
64551;BME280;50945;44.472;-123.352;2022-08-21T09:31:27;100369.22;;;15.38;74.43
64551;BME280;50945;44.472;-123.352;2022-08-21T09:34:02;100373.03;;;15.37;74.21
64551;BME280;50945;44.472;-123.352;2022-08-21T09:39:06;100369.22;;;15.38;73.67
64551;BME280;50945;44.472;-123.352;2022-08-21T09:41:35;100373.44;;;15.41;73.96
64551;BME280;50945;44.472;-123.352;2022-08-21T09:44:06;100360.50;;;15.42;74.04
64551;BME280;50945;44.472;-123.352;2022-08-21T09:46:34;100364.53;;;15.39;73.93
64551;BME280;50945;44.472;-123.352;2022-08-21T09:49:03;100367.94;;;15.34;73.94
64551;BME280;50945;44.472;-123.352;2022-08-21T09:51:32;100368.16;;;15.33;74.34
64551;BME280;50945;44.472;-123.352;2022-08-21T09:56:35;100374.94;;;15.24;74.32
64551;BME280;50945;44.472;-123.352;2022-08-21T09:59:32;100376.88;;;15.16;75.69
64551;BME280;50945;44.472;-123.352;2022-08-21T10:02:00;100380.28;;;15.12;74.87
64551;BME280;50945;44.472;-123.352;2022-08-21T10:04:30;100385.34;;;15.08;74.85
64551;BME280;50945;44.472;-123.352;2022-08-21T10:07:11;100377.53;;;14.98;75.49
64551;BME280;50945;44.472;-123.352;2022-08-21T10:09:38;100375.66;;;14.92;75.19
64551;BME280;50945;44.472;-123.352;2022-08-21T10:12:20;100376.28;;;14.88;75.62
64551;BME280;50945;44.472;-123.352;2022-08-21T10:17:52;100386.44;;;14.80;76.32
64551;BME280;50945;44.472;-123.352;2022-08-21T10:28:17;100387.06;;;14.76;75.46
64551;BME280;50945;44.472;-123.352;2022-08-21T10:31:31;100388.56;;;14.78;74.86
64551;BME280;50945;44.472;-123.352;2022-08-21T10:36:26;100386.66;;;14.79;74.99
64551;BME280;50945;44.472;-123.352;2022-08-21T10:39:21;100391.31;;;14.78;75.04
64551;BME280;50945;44.472;-123.352;2022-08-21T10:44:54;100393.19;;;14.78;76.86
64551;BME280;50945;44.472;-123.352;2022-08-21T10:47:32;100390.03;;;14.74;74.60
64551;BME280;50945;44.472;-123.352;2022-08-21T10:50:30;100391.50;;;14.70;75.74
64551;BME280;50945;44.472;-123.352;2022-08-21T10:55:43;100399.53;;;14.58;75.57
64551;BME280;50945;44.472;-123.352;2022-08-21T10:58:25;100391.69;;;14.55;75.10
64551;BME280;50945;44.472;-123.352;2022-08-21T11:01:00;100395.91;;;14.51;75.40
64551;BME280;50945;44.472;-123.352;2022-08-21T11:03:45;100391.88;;;14.47;75.81
64551;BME280;50945;44.472;-123.352;2022-08-21T11:06:18;100392.50;;;14.42;75.35
64551;BME280;50945;44.472;-123.352;2022-08-21T11:08:52;100396.97;;;14.43;75.31
64551;BME280;50945;44.472;-123.352;2022-08-21T11:11:31;100390.63;;;14.43;75.22
64551;BME280;50945;44.472;-123.352;2022-08-21T11:17:02;100393.78;;;14.40;75.59
64551;BME280;50945;44.472;-123.352;2022-08-21T11:19:38;100389.13;;;14.40;75.04
64551;BME280;50945;44.472;-123.352;2022-08-21T11:22:26;100388.28;;;14.40;76.39
64551;BME280;50945;44.472;-123.352;2022-08-21T11:28:00;100397.38;;;14.34;76.05
64551;BME280;50945;44.472;-123.352;2022-08-21T11:30:39;100398.41;;;14.26;75.84
64551;BME280;50945;44.472;-123.352;2022-08-21T11:39:22;100400.50;;;14.11;80.82
64551;BME280;50945;44.472;-123.352;2022-08-21T11:47:32;100409.97;;;14.01;76.32
64551;BME280;50945;44.472;-123.352;2022-08-21T11:50:12;100398.31;;;13.99;76.38
64551;BME280;50945;44.472;-123.352;2022-08-21T11:52:47;100406.78;;;13.98;76.32
64551;BME280;50945;44.472;-123.352;2022-08-21T11:55:32;100406.34;;;13.94;77.45
64551;BME280;50945;44.472;-123.352;2022-08-21T11:58:02;100406.53;;;13.93;76.56
64551;BME280;50945;44.472;-123.352;2022-08-21T12:00:43;100408.66;;;13.91;77.46
64551;BME280;50945;44.472;-123.352;2022-08-21T12:03:17;100402.50;;;13.88;76.02
64551;BME280;50945;44.472;-123.352;2022-08-21T12:05:58;100406.34;;;13.87;76.40
64551;BME280;50945;44.472;-123.352;2022-08-21T12:08:35;100410.97;;;13.87;76.76
64551;BME280;50945;44.472;-123.352;2022-08-21T12:11:06;100416.47;;;13.87;75.90
64551;BME280;50945;44.472;-123.352;2022-08-21T12:13:52;100409.09;;;13.87;76.52
64551;BME280;50945;44.472;-123.352;2022-08-21T12:16:38;100401.88;;;13.86;76.49
64551;BME280;50945;44.472;-123.352;2022-08-21T12:19:29;100408.66;;;13.84;77.43
64551;BME280;50945;44.472;-123.352;2022-08-21T12:26:57;100408.16;;;13.74;76.21
64551;BME280;50945;44.472;-123.352;2022-08-21T12:29:36;100409.41;;;13.71;77.31
64551;BME280;50945;44.472;-123.352;2022-08-21T12:32:20;100408.97;;;13.67;76.37
64551;BME280;50945;44.472;-123.352;2022-08-21T12:34:58;100406.66;;;13.64;76.25
64551;BME280;50945;44.472;-123.352;2022-08-21T12:37:49;100399.66;;;13.62;76.44
64551;BME280;50945;44.472;-123.352;2022-08-21T12:42:50;100408.97;;;13.61;76.33
64551;BME280;50945;44.472;-123.352;2022-08-21T12:47:59;100406.22;;;13.61;76.52
64551;BME280;50945;44.472;-123.352;2022-08-21T12:53:13;100403.66;;;13.59;76.81
64551;BME280;50945;44.472;-123.352;2022-08-21T12:55:42;100409.56;;;13.56;76.70
64551;BME280;50945;44.472;-123.352;2022-08-21T12:58:23;100409.75;;;13.55;77.26
64551;BME280;50945;44.472;-123.352;2022-08-21T13:00:52;100409.97;;;13.53;76.65
64551;BME280;50945;44.472;-123.352;2022-08-21T13:03:20;100413.97;;;13.50;76.70
64551;BME280;50945;44.472;-123.352;2022-08-21T13:05:47;100415.19;;;13.48;76.75
64551;BME280;50945;44.472;-123.352;2022-08-21T13:08:18;100412.66;;;13.46;77.12
64551;BME280;50945;44.472;-123.352;2022-08-21T13:10:47;100412.66;;;13.46;77.31
64551;BME280;50945;44.472;-123.352;2022-08-21T13:13:20;100421.78;;;13.47;77.42
64551;BME280;50945;44.472;-123.352;2022-08-21T13:15:48;100424.50;;;13.47;77.52
64551;BME280;50945;44.472;-123.352;2022-08-21T13:18:25;100430.19;;;13.45;77.92
64551;BME280;50945;44.472;-123.352;2022-08-21T13:21:04;100425.94;;;13.43;77.54
64551;BME280;50945;44.472;-123.352;2022-08-21T13:23:31;100434.41;;;13.41;77.03
64551;BME280;50945;44.472;-123.352;2022-08-21T13:25:58;100424.03;;;13.37;77.38
64551;BME280;50945;44.472;-123.352;2022-08-21T13:28:33;100424.03;;;13.37;77.64
64551;BME280;50945;44.472;-123.352;2022-08-21T13:31:00;100433.09;;;13.37;76.94
64551;BME280;50945;44.472;-123.352;2022-08-21T13:33:29;100439.03;;;13.41;77.03
64551;BME280;50945;44.472;-123.352;2022-08-21T13:38:29;100441.56;;;13.42;77.05
64551;BME280;50945;44.472;-123.352;2022-08-21T13:41:02;100443.28;;;13.43;77.07
64551;BME280;50945;44.472;-123.352;2022-08-21T13:43:35;100446.69;;;13.45;77.34
64551;BME280;50945;44.472;-123.352;2022-08-21T13:46:08;100446.28;;;13.48;77.11
64551;BME280;50945;44.472;-123.352;2022-08-21T13:48:36;100452.22;;;13.52;76.70